createdAt,value
2022-09-22T03:01:38.664Z,99.90
2022-09-22T03:04:06.896Z,99.90
2022-09-22T03:06:34.835Z,99.90
2022-09-22T03:09:02.827Z,99.90
2022-09-22T03:11:30.651Z,99.90
2022-09-22T03:13:58.636Z,99.90
2022-09-22T03:16:26.439Z,99.90
2022-09-22T03:18:57.298Z,99.90
2022-09-22T03:21:25.195Z,99.90
2022-09-22T03:23:53.014Z,99.90
2022-09-22T03:26:20.807Z,99.90
2022-09-22T03:28:48.714Z,99.90
2022-09-22T03:31:16.583Z,99.90
2022-09-22T03:33:45.211Z,99.90
2022-09-22T03:36:16.379Z,99.90
2022-09-22T03:38:44.265Z,99.90
2022-09-22T03:41:12.066Z,99.90
2022-09-22T03:43:39.863Z,99.90
2022-09-22T03:46:07.919Z,99.90
2022-09-22T03:48:35.996Z,99.90
2022-09-22T03:51:04.416Z,99.90
2022-09-22T03:53:33.598Z,99.90
2022-09-22T03:56:09.186Z,99.90
2022-09-22T03:58:37.595Z,99.90
2022-09-22T04:01:06.919Z,99.90
2022-09-22T04:03:35.738Z,99.90
2022-09-22T04:06:04.293Z,99.90
2022-09-22T04:08:33.460Z,99.90
2022-09-22T04:11:01.670Z,99.90
2022-09-22T04:13:29.537Z,99.90
2022-09-22T04:15:57.399Z,99.90
2022-09-22T04:18:25.709Z,99.90
2022-09-22T04:20:57.611Z,99.90
2022-09-22T04:23:26.467Z,99.90
2022-09-22T04:25:55.656Z,99.90
2022-09-22T04:28:23.537Z,99.90
2022-09-22T04:30:51.638Z,99.90
2022-09-22T04:33:19.518Z,99.90
2022-09-22T04:35:49.519Z,99.90
2022-09-22T04:38:17.463Z,99.90
2022-09-22T04:40:45.952Z,99.90
2022-09-22T04:43:15.171Z,99.90
2022-09-22T04:45:45.084Z,99.90
2022-09-22T04:48:13.336Z,99.90
2022-09-22T04:50:45.740Z,99.90
2022-09-22T04:53:16.081Z,99.90
2022-09-22T04:55:43.888Z,99.90
2022-09-22T04:58:11.695Z,99.90
2022-09-22T05:00:40.880Z,99.90
2022-09-22T05:03:09.643Z,99.90
2022-09-22T05:05:38.108Z,99.90
2022-09-22T05:08:06.871Z,99.90
2022-09-22T05:10:36.722Z,99.90
2022-09-22T05:13:05.661Z,99.90
2022-09-22T05:15:34.612Z,99.90
2022-09-22T05:18:03.821Z,99.90
2022-09-22T05:20:31.687Z,99.90
2022-09-22T05:22:59.947Z,99.90
2022-09-22T05:25:28.162Z,99.90
2022-09-22T05:27:57.358Z,99.90
2022-09-22T05:30:26.566Z,99.90
2022-09-22T05:32:54.575Z,99.90
2022-09-22T05:35:25.709Z,99.90
2022-09-22T05:37:54.503Z,99.90
2022-09-22T05:40:24.186Z,99.90
2022-09-22T05:42:53.798Z,99.90
2022-09-22T05:45:22.372Z,99.90
2022-09-22T05:47:50.342Z,99.90
2022-09-22T05:50:19.659Z,99.90
2022-09-22T05:52:49.211Z,99.90
2022-09-22T05:55:17.271Z,99.90
2022-09-22T05:57:45.167Z,99.90
2022-09-22T06:00:14.201Z,99.90
2022-09-22T06:02:44.707Z,99.90
2022-09-22T06:05:15.606Z,99.90
2022-09-22T06:07:45.331Z,99.90
2022-09-22T06:10:14.457Z,99.90
2022-09-22T06:12:42.322Z,99.90
2022-09-22T06:15:10.961Z,99.90
2022-09-22T06:17:39.366Z,99.90
2022-09-22T06:20:08.472Z,99.90
2022-09-22T06:22:37.152Z,99.90
2022-09-22T06:25:08.967Z,99.90
2022-09-22T06:27:39.999Z,99.90
2022-09-22T06:30:11.076Z,99.90
2022-09-22T06:32:39.996Z,99.90
2022-09-22T06:35:08.463Z,99.90
2022-09-22T06:37:38.857Z,99.90
2022-09-22T06:40:08.225Z,99.90
2022-09-22T06:42:36.520Z,99.90
2022-09-22T06:45:06.550Z,99.90
2022-09-22T06:47:34.373Z,99.90
2022-09-22T06:50:05.445Z,99.90
2022-09-22T06:52:36.668Z,99.90
2022-09-22T06:55:05.945Z,99.90
2022-09-22T06:57:34.002Z,99.90
2022-09-22T07:00:02.347Z,99.90
2022-09-22T07:02:32.163Z,99.90
2022-09-22T07:04:59.967Z,99.90
2022-09-22T07:07:28.772Z,99.90
2022-09-22T07:09:56.763Z,99.90
2022-09-22T07:12:25.804Z,99.90
2022-09-22T07:14:56.365Z,99.90
2022-09-22T07:17:24.533Z,99.90
2022-09-22T07:19:56.233Z,99.90
2022-09-22T07:22:24.031Z,99.90
2022-09-22T07:24:51.859Z,99.90
2022-09-22T07:27:26.089Z,99.90
2022-09-22T07:29:54.973Z,99.90
2022-09-22T07:32:22.782Z,99.90
2022-09-22T07:34:52.649Z,99.90
2022-09-22T07:37:23.511Z,99.90
2022-09-22T07:39:51.374Z,99.90
2022-09-22T07:42:20.065Z,99.90
2022-09-22T07:45:05.581Z,99.90
2022-09-22T07:47:51.114Z,99.90
2022-09-22T07:50:18.941Z,99.90
2022-09-22T07:52:53.188Z,99.90
2022-09-22T07:55:25.018Z,99.90
2022-09-22T07:57:57.159Z,99.90
2022-09-22T08:00:26.531Z,99.90
2022-09-22T08:02:56.664Z,99.90
2022-09-22T08:05:25.861Z,99.90
2022-09-22T08:07:57.132Z,99.90
2022-09-22T08:10:25.932Z,99.90
2022-09-22T08:12:54.165Z,99.90
2022-09-22T08:15:26.889Z,99.90
2022-09-22T08:17:58.251Z,99.90
2022-09-22T08:20:28.825Z,99.90
2022-09-22T08:23:00.779Z,99.90
2022-09-22T08:25:28.766Z,99.90
2022-09-22T08:27:56.575Z,99.90
2022-09-22T08:30:24.409Z,99.90
2022-09-22T08:32:52.227Z,99.90
2022-09-22T08:35:20.379Z,99.90
2022-09-22T08:37:50.317Z,99.90
2022-09-22T08:40:23.662Z,99.90
2022-09-22T08:42:54.392Z,99.90
2022-09-22T08:45:30.294Z,99.90
2022-09-22T08:48:21.121Z,99.90
2022-09-22T08:51:08.595Z,99.90
2022-09-22T08:53:43.435Z,99.90
2022-09-22T08:56:21.999Z,99.90
2022-09-22T08:58:55.216Z,99.90
2022-09-22T09:01:36.385Z,99.90
2022-09-22T09:04:28.438Z,99.90
2022-09-22T09:07:04.698Z,99.90
2022-09-22T09:09:42.246Z,99.90
2022-09-22T09:12:29.790Z,99.90
2022-09-22T09:15:16.718Z,99.90
2022-09-22T09:17:47.230Z,99.90
2022-09-22T09:20:21.653Z,99.90
2022-09-22T09:22:55.634Z,99.90
2022-09-22T09:25:34.798Z,99.90
2022-09-22T09:28:07.537Z,99.90
2022-09-22T09:30:42.909Z,99.90
2022-09-22T09:33:19.407Z,99.90
2022-09-22T09:35:53.001Z,99.90
2022-09-22T09:38:28.497Z,99.90
2022-09-22T09:41:09.831Z,99.90
2022-09-22T09:43:43.049Z,99.90
2022-09-22T09:46:19.959Z,99.90
2022-09-22T09:49:05.754Z,99.90
2022-09-22T09:51:39.824Z,99.90
2022-09-22T09:54:14.406Z,99.90
2022-09-22T09:57:02.315Z,99.90
2022-09-22T09:59:49.469Z,99.90
2022-09-22T10:02:21.552Z,99.90
2022-09-22T10:04:52.532Z,99.90
2022-09-22T10:07:24.546Z,99.90
2022-09-22T10:09:53.507Z,99.90
2022-09-22T10:12:25.141Z,99.90
2022-09-22T10:14:56.391Z,99.90
2022-09-22T10:17:28.630Z,99.90
2022-09-22T10:20:21.400Z,99.90
2022-09-22T10:22:49.782Z,99.90
2022-09-22T10:25:23.917Z,99.90
2022-09-22T10:28:03.338Z,99.70
2022-09-22T10:30:37.311Z,99.70
2022-09-22T10:33:16.865Z,99.90
2022-09-22T10:35:47.120Z,99.00
2022-09-22T10:38:21.366Z,99.10
2022-09-22T10:40:55.897Z,97.70
2022-09-22T10:43:39.256Z,97.50
2022-09-22T10:46:34.633Z,97.30
2022-09-22T10:49:10.358Z,96.00
2022-09-22T10:51:52.430Z,95.50
2022-09-22T10:54:42.947Z,95.50
2022-09-22T10:57:23.595Z,95.60
2022-09-22T11:00:20.136Z,95.80
2022-09-22T11:03:32.594Z,95.00
2022-09-22T11:06:45.601Z,94.90
2022-09-22T11:12:22.014Z,94.50
2022-09-22T11:15:02.468Z,92.00
2022-09-22T11:17:45.464Z,92.80
2022-09-22T11:20:30.041Z,92.20
2022-09-22T11:23:16.909Z,91.80
2022-09-22T11:26:01.828Z,90.90
2022-09-22T11:28:57.291Z,90.40
2022-09-22T11:31:43.075Z,90.10
2022-09-22T11:34:33.334Z,90.20
2022-09-22T11:37:26.299Z,89.80
2022-09-22T11:40:07.538Z,89.20
2022-09-22T11:42:45.383Z,89.80
2022-09-22T11:45:25.111Z,86.80
2022-09-22T11:48:03.802Z,88.40
2022-09-22T11:50:40.166Z,89.00
2022-09-22T11:53:21.225Z,89.10
2022-09-22T11:55:58.183Z,88.60
2022-09-22T11:58:29.351Z,90.10
2022-09-22T12:01:03.283Z,90.10
2022-09-22T12:03:39.990Z,89.10
2022-09-22T12:06:12.518Z,87.90
2022-09-22T12:08:47.044Z,88.30
2022-09-22T12:11:17.756Z,87.20
2022-09-22T12:13:47.781Z,87.60
2022-09-22T12:16:22.417Z,86.50
2022-09-22T12:18:57.501Z,87.40
2022-09-22T12:21:43.404Z,88.00
2022-09-22T12:24:13.663Z,85.80
2022-09-22T12:26:43.834Z,85.80
2022-09-22T12:29:24.433Z,85.50
2022-09-22T12:31:55.351Z,84.80
2022-09-22T12:34:26.114Z,84.70
2022-09-22T12:36:56.179Z,84.60
2022-09-22T12:39:28.898Z,84.80
2022-09-22T12:41:59.350Z,84.40
2022-09-22T12:44:29.748Z,83.40
2022-09-22T12:47:02.405Z,84.20
2022-09-22T12:49:31.320Z,84.30
2022-09-22T12:51:59.252Z,81.90
2022-09-22T12:54:51.345Z,82.10
2022-09-22T12:57:29.474Z,83.40
2022-09-22T13:00:08.006Z,81.20
2022-09-22T13:02:43.283Z,81.10
2022-09-22T13:05:46.414Z,80.50
2022-09-22T13:08:19.915Z,78.60
2022-09-22T13:11:00.411Z,80.20
2022-09-22T13:13:40.495Z,81.80
2022-09-22T13:16:35.200Z,81.60
2022-09-22T13:19:03.843Z,79.70
2022-09-22T13:21:33.304Z,80.50
2022-09-22T13:24:03.698Z,78.50
2022-09-22T13:26:35.114Z,78.50
2022-09-22T13:29:07.595Z,78.10
2022-09-22T13:31:43.314Z,78.10
2022-09-22T13:34:22.147Z,76.50
2022-09-22T13:36:51.407Z,76.80
2022-09-22T13:39:22.963Z,76.40
2022-09-22T13:41:55.251Z,76.70
2022-09-22T13:44:28.823Z,77.90
2022-09-22T13:46:58.805Z,77.60
2022-09-22T13:49:32.069Z,76.20
2022-09-22T13:52:02.768Z,74.70
2022-09-22T13:54:33.905Z,76.90
2022-09-22T13:57:05.791Z,73.90
2022-09-22T13:59:40.260Z,69.00
2022-09-22T14:02:10.661Z,63.00
2022-09-22T14:04:38.769Z,59.00
2022-09-22T14:07:10.923Z,56.90
2022-09-22T14:09:40.192Z,53.80
2022-09-22T14:12:11.454Z,52.10
2022-09-22T14:14:40.269Z,51.60
2022-09-22T14:17:14.635Z,49.60
2022-09-22T14:19:46.151Z,48.80
2022-09-22T14:22:18.900Z,48.90
2022-09-22T14:24:50.500Z,48.30
2022-09-22T14:27:24.319Z,47.50
2022-09-22T14:29:54.011Z,47.00
2022-09-22T14:32:27.265Z,46.20
2022-09-22T14:34:58.484Z,45.60
2022-09-22T14:37:31.157Z,45.50
2022-09-22T14:40:02.481Z,44.70
2022-09-22T14:42:34.105Z,44.30
2022-09-22T14:45:20.886Z,44.10
2022-09-22T14:48:08.878Z,43.40
2022-09-22T14:50:41.467Z,43.80
2022-09-22T14:53:19.018Z,44.10
2022-09-22T14:55:49.599Z,43.80
2022-09-22T14:58:22.057Z,44.30
2022-09-22T15:01:13.821Z,44.50
2022-09-22T15:03:45.171Z,45.00
2022-09-22T15:06:15.665Z,44.20
2022-09-22T15:08:44.763Z,44.80
2022-09-22T15:11:13.058Z,45.60
2022-09-22T15:13:42.202Z,45.20
2022-09-22T15:16:38.163Z,45.30
2022-09-22T15:19:06.448Z,45.90
2022-09-22T15:21:46.803Z,46.60
2022-09-22T15:24:15.885Z,47.70
2022-09-22T15:26:44.214Z,48.70
2022-09-22T15:29:13.229Z,49.00
2022-09-22T15:31:41.167Z,49.80
2022-09-22T15:34:10.417Z,50.70
2022-09-22T15:36:45.395Z,51.10
2022-09-22T15:39:20.270Z,51.60
2022-09-22T15:41:48.616Z,52.60
2022-09-22T15:44:16.485Z,53.00
2022-09-22T15:46:48.458Z,53.30
2022-09-22T15:49:20.751Z,54.20
2022-09-22T15:51:50.385Z,54.60
2022-09-22T15:54:20.915Z,54.80
2022-09-22T15:56:52.395Z,54.80
2022-09-22T15:59:22.411Z,55.00
2022-09-22T16:01:51.825Z,56.00
2022-09-22T16:04:20.050Z,56.10
2022-09-22T16:06:54.171Z,55.90
2022-09-22T16:09:22.121Z,55.20
2022-09-22T16:11:50.087Z,55.70
2022-09-22T16:14:18.601Z,55.90
2022-09-22T16:16:46.479Z,56.50
2022-09-22T16:19:14.314Z,56.40
2022-09-22T16:21:51.633Z,57.40
2022-09-22T16:24:20.782Z,57.50
2022-09-22T16:26:49.037Z,58.70
2022-09-22T16:29:16.863Z,58.70
2022-09-22T16:31:44.832Z,58.50
2022-09-22T16:34:12.846Z,58.20
2022-09-22T16:36:41.642Z,58.70
2022-09-22T16:39:13.081Z,58.20
2022-09-22T16:41:45.575Z,58.50
2022-09-22T16:44:13.695Z,58.30
2022-09-22T16:46:42.712Z,58.90
2022-09-22T16:49:12.760Z,59.20
2022-09-22T16:51:42.597Z,59.70
2022-09-22T16:54:12.236Z,60.10
2022-09-22T16:56:44.300Z,60.50
2022-09-22T16:59:13.219Z,59.70
2022-09-22T17:01:41.078Z,60.00
2022-09-22T17:04:09.764Z,60.60
2022-09-22T17:06:38.276Z,61.20
2022-09-22T17:09:07.404Z,62.40
2022-09-22T17:11:36.722Z,60.70
2022-09-22T17:14:12.134Z,61.60
2022-09-22T17:16:41.468Z,62.30
2022-09-22T17:19:11.749Z,61.90
2022-09-22T17:21:41.079Z,62.10
2022-09-22T17:24:09.703Z,62.30
2022-09-22T17:26:40.632Z,62.30
2022-09-22T17:29:10.855Z,62.30
2022-09-22T17:31:41.641Z,62.50
2022-09-22T17:34:10.432Z,62.40
2022-09-22T17:36:38.509Z,62.90
2022-09-22T17:39:07.367Z,63.90
2022-09-22T17:41:35.366Z,63.60
2022-09-22T17:44:04.445Z,64.40
2022-09-22T17:46:35.476Z,65.20
2022-09-22T17:49:20.990Z,65.00
2022-09-22T17:52:07.820Z,65.50
2022-09-22T17:54:55.121Z,65.60
2022-09-22T17:57:24.887Z,66.10
2022-09-22T17:59:53.178Z,66.10
2022-09-22T18:02:22.761Z,67.50
2022-09-22T18:04:50.619Z,67.70
2022-09-22T18:07:20.403Z,67.90
2022-09-22T18:09:50.096Z,68.30
2022-09-22T18:12:21.451Z,68.80
2022-09-22T18:14:51.996Z,69.30
2022-09-22T18:17:23.234Z,69.30
2022-09-22T18:19:54.207Z,69.20
2022-09-22T18:22:23.931Z,70.10
2022-09-22T18:24:55.379Z,71.00
2022-09-22T18:27:25.511Z,71.80
2022-09-22T18:29:58.232Z,72.00
2022-09-22T18:32:28.412Z,73.00
2022-09-22T18:34:56.299Z,73.40
2022-09-22T18:37:25.409Z,74.00
2022-09-22T18:39:53.358Z,74.50
2022-09-22T18:42:24.145Z,74.70
2022-09-22T18:44:52.419Z,75.20
2022-09-22T18:47:23.093Z,75.80
2022-09-22T18:49:52.469Z,76.20
2022-09-22T18:52:24.131Z,76.60
2022-09-22T18:54:54.331Z,77.10
2022-09-22T18:57:24.537Z,78.10
2022-09-22T18:59:53.829Z,77.60
2022-09-22T19:02:22.347Z,78.30
2022-09-22T19:04:52.179Z,78.70
2022-09-22T19:07:41.340Z,79.20
2022-09-22T19:10:11.815Z,79.40
2022-09-22T19:12:40.297Z,79.60
2022-09-22T19:15:13.233Z,79.80
2022-09-22T19:17:44.065Z,80.00
2022-09-22T19:20:17.112Z,80.20
2022-09-22T19:22:45.080Z,80.30
2022-09-22T19:25:13.175Z,80.50
2022-09-22T19:27:41.155Z,80.70
2022-09-22T19:30:10.078Z,80.80
2022-09-22T19:32:38.083Z,81.00
2022-09-22T19:35:06.783Z,81.20
2022-09-22T19:37:36.325Z,81.30
2022-09-22T19:40:04.952Z,81.70
2022-09-22T19:42:37.985Z,82.20
2022-09-22T19:45:08.423Z,82.50
2022-09-22T19:47:36.399Z,82.90
2022-09-22T19:50:06.465Z,84.00
2022-09-22T19:52:36.302Z,83.50
2022-09-22T19:55:04.741Z,83.90
2022-09-22T19:57:32.845Z,84.30
2022-09-22T20:00:00.732Z,84.70
2022-09-22T20:02:28.533Z,85.10
2022-09-22T20:04:57.020Z,85.50
2022-09-22T20:07:27.660Z,86.60
2022-09-22T20:09:57.202Z,86.10
2022-09-22T20:12:25.079Z,86.70
2022-09-22T20:14:54.492Z,87.60
2022-09-22T20:17:23.084Z,87.20
2022-09-22T20:19:50.887Z,88.00
2022-09-22T20:22:24.043Z,88.40
2022-09-22T20:24:55.239Z,88.80
2022-09-22T20:27:26.607Z,89.40
2022-09-22T20:29:57.269Z,89.90
2022-09-22T20:32:25.850Z,89.80
2022-09-22T20:34:54.792Z,89.80
2022-09-22T20:37:23.535Z,89.90
2022-09-22T20:39:51.506Z,90.00
2022-09-22T20:42:19.379Z,90.10
2022-09-22T20:44:49.118Z,90.20
2022-09-22T20:47:18.701Z,90.40
2022-09-22T20:49:51.318Z,90.40
2022-09-22T20:52:20.759Z,90.40
2022-09-22T20:54:49.289Z,90.50
2022-09-22T20:57:17.486Z,90.60
2022-09-22T20:59:45.739Z,90.70
2022-09-22T21:02:15.736Z,90.80
2022-09-22T21:04:43.678Z,90.80
2022-09-22T21:07:12.223Z,91.00
2022-09-22T21:09:57.507Z,91.00
2022-09-22T21:12:30.673Z,91.00
2022-09-22T21:14:59.477Z,91.20
2022-09-22T21:17:29.614Z,91.40
2022-09-22T21:19:57.744Z,91.40
2022-09-22T21:22:27.939Z,91.40
2022-09-22T21:24:56.346Z,91.30
2022-09-22T21:27:24.621Z,91.30
2022-09-22T21:29:56.093Z,91.20
